Time;durP1;ratioP1;P1;durP2;ratioP2;P2;SDS_P1;SDS_P2;PMS_P1;PMS_P2;Temp;Humidity;BMP_temperature;BMP_pressure;BME280_temperature;BME280_humidity;BME280_pressure;Samples;Min_cycle;Max_cycle;Signal;HPM_P1;HPM_P2
2023/04/08 00:00:30;;;;;;;59.78;14.50;;;4.00;100.00;;;;;;4971721;28;20043;-75
2023/04/08 00:02:57;;;;;;;49.90;15.43;;;4.00;100.00;;;;;;4965839;28;20043;-75
2023/04/08 00:05:24;;;;;;;43.63;14.40;;;4.00;100.00;;;;;;4966910;28;20047;-75
2023/04/08 00:07:51;;;;;;;54.55;15.75;;;4.00;100.00;;;;;;4964729;28;20590;-75
2023/04/08 00:10:18;;;;;;;48.33;15.88;;;4.00;100.00;;;;;;4968411;28;20042;-75
2023/04/08 00:12:47;;;;;;;49.55;15.15;;;4.00;100.00;;;;;;4959051;28;20051;-75
2023/04/08 00:15:14;;;;;;;51.78;17.13;;;4.00;100.00;;;;;;4958110;28;20076;-75
2023/04/08 00:17:41;;;;;;;52.95;16.50;;;4.00;100.00;;;;;;4970125;28;20058;-75
2023/04/08 00:20:08;;;;;;;56.90;17.40;;;4.00;100.00;;;;;;4987260;28;20069;-75
2023/04/08 00:22:35;;;;;;;50.22;15.85;;;4.00;100.00;;;;;;4962058;28;20043;-75
2023/04/08 00:25:05;;;;;;;48.47;17.58;;;3.90;100.00;;;;;;4985684;28;20057;-75
2023/04/08 00:27:32;;;;;;;68.45;15.82;;;4.00;100.00;;;;;;4960934;28;20051;-75
2023/04/08 00:30:00;;;;;;;58.42;17.88;;;4.00;100.00;;;;;;4971445;28;20415;-75
2023/04/08 00:32:28;;;;;;;63.22;17.05;;;4.00;100.00;;;;;;4963543;28;20686;-75
2023/04/08 00:34:55;;;;;;;63.97;17.55;;;4.00;100.00;;;;;;4973904;28;20154;-75
2023/04/08 00:37:22;;;;;;;62.88;17.52;;;4.00;100.00;;;;;;4974534;28;20554;-75
2023/04/08 00:39:49;;;;;;;61.75;16.45;;;4.00;100.00;;;;;;4971098;28;20050;-75
2023/04/08 00:42:16;;;;;;;55.95;17.08;;;4.00;100.00;;;;;;4966514;28;20068;-75
2023/04/08 00:44:43;;;;;;;54.63;16.77;;;4.00;100.00;;;;;;4958474;28;20042;-75
2023/04/08 00:47:14;;;;;;;61.00;17.20;;;4.00;100.00;;;;;;4956943;28;20122;-76
2023/04/08 00:49:42;;;;;;;58.47;16.55;;;4.00;100.00;;;;;;4960815;28;20328;-75
2023/04/08 00:52:09;;;;;;;56.05;16.48;;;4.00;100.00;;;;;;4972545;28;20050;-75
2023/04/08 00:54:37;;;;;;;58.75;17.23;;;4.00;100.00;;;;;;4955232;28;20524;-75
2023/04/08 00:57:05;;;;;;;52.47;16.52;;;3.90;100.00;;;;;;4969612;28;20062;-75
2023/04/08 00:59:34;;;;;;;57.30;16.73;;;4.00;100.00;;;;;;4975225;28;20054;-75
2023/04/08 01:02:10;;;;;;;47.25;16.25;;;4.00;100.00;;;;;;4983413;28;20053;-75
2023/04/08 01:04:49;;;;;;;50.05;16.88;;;3.90;100.00;;;;;;4977162;28;20392;-75
2023/04/08 01:07:16;;;;;;;53.83;16.63;;;4.00;100.00;;;;;;4953793;28;20584;-75
2023/04/08 01:09:50;;;;;;;52.47;16.55;;;3.90;100.00;;;;;;4975912;28;20054;-75
2023/04/08 01:12:29;;;;;;;51.17;16.33;;;4.00;100.00;;;;;;4970682;28;20063;-75
2023/04/08 01:15:04;;;;;;;53.65;16.67;;;4.00;100.00;;;;;;4961124;28;20059;-75
2023/04/08 01:17:31;;;;;;;;;;;4.00;100.00;;;;;;4960735;28;20046;-75
2023/04/08 01:20:00;;;;;;;51.83;16.55;;;4.00;100.00;;;;;;4970006;28;19948;-75
2023/04/08 01:22:42;;;;;;;54.70;16.80;;;4.00;100.00;;;;;;4960102;28;20060;-75
2023/04/08 01:25:23;;;;;;;63.72;18.48;;;4.00;100.00;;;;;;4967257;28;20047;-75
2023/04/08 01:27:55;;;;;;;48.15;16.05;;;4.00;100.00;;;;;;4970455;28;20061;-75
2023/04/08 01:30:23;;;;;;;62.38;17.10;;;4.00;100.00;;;;;;4958070;28;20043;-75
2023/04/08 01:32:53;;;;;;;52.28;16.67;;;4.00;100.00;;;;;;4967953;28;20049;-76
2023/04/08 01:35:20;;;;;;;55.45;18.45;;;4.00;100.00;;;;;;4971113;28;20100;-75
2023/04/08 01:37:50;;;;;;;68.05;17.60;;;4.00;100.00;;;;;;4955628;28;20554;-76
2023/04/08 01:40:18;;;;;;;62.85;17.25;;;4.00;100.00;;;;;;4961269;28;20059;-75
2023/04/08 01:42:48;;;;;;;51.47;16.83;;;3.90;100.00;;;;;;4969361;28;20043;-76
2023/04/08 01:45:16;;;;;;;55.45;15.32;;;3.90;100.00;;;;;;4959791;28;20124;-75
2023/04/08 01:47:47;;;;;;;50.47;17.40;;;3.90;100.00;;;;;;4966414;28;20101;-75
2023/04/08 01:50:15;;;;;;;56.83;17.13;;;3.90;100.00;;;;;;4962951;28;20456;-75
2023/04/08 01:52:47;;;;;;;57.55;17.20;;;3.90;100.00;;;;;;4982699;28;20177;-75
2023/04/08 01:55:15;;;;;;;58.97;16.88;;;3.90;100.00;;;;;;4985093;28;20054;-75
2023/04/08 01:57:50;;;;;;;56.20;17.50;;;3.90;100.00;;;;;;4978865;28;20709;-75
2023/04/08 02:00:19;;;;;;;51.55;15.70;;;3.90;100.00;;;;;;4968818;28;20739;-75
2023/04/08 02:02:47;;;;;;;54.95;16.58;;;3.90;100.00;;;;;;4952129;28;20129;-75
2023/04/08 02:05:15;;;;;;;55.33;16.92;;;3.90;100.00;;;;;;4977111;28;20061;-75
2023/04/08 02:07:42;;;;;;;56.90;16.83;;;4.00;100.00;;;;;;4958441;28;20050;-75
2023/04/08 02:10:09;;;;;;;58.17;16.63;;;4.00;100.00;;;;;;4960993;28;20641;-75
2023/04/08 02:12:36;;;;;;;53.78;17.15;;;3.90;100.00;;;;;;4966266;28;20517;-75
2023/04/08 02:15:03;;;;;;;60.25;18.20;;;3.90;100.00;;;;;;4981166;28;20046;-75
2023/04/08 02:17:43;;;;;;;70.32;18.75;;;4.00;100.00;;;;;;4981507;28;20058;-75
2023/04/08 02:20:15;;;;;;;63.10;17.45;;;3.90;100.00;;;;;;4949768;28;20057;-75
2023/04/08 02:23:18;;;;;;;54.60;17.85;;;3.90;100.00;;;;;;4967744;28;20058;-75
2023/04/08 02:25:47;;;;;;;59.42;16.85;;;3.90;100.00;;;;;;4928481;28;20050;-75
2023/04/08 02:28:16;;;;;;;51.67;16.63;;;3.90;100.00;;;;;;4972043;28;20046;-75
2023/04/08 02:30:49;;;;;;;63.28;18.10;;;4.00;100.00;;;;;;4957902;28;20058;-75
2023/04/08 02:33:19;;;;;;;57.08;17.17;;;4.00;100.00;;;;;;4971363;28;20635;-76
2023/04/08 02:35:53;;;;;;;52.05;17.63;;;4.00;100.00;;;;;;4967904;28;20113;-76
2023/04/08 02:38:22;;;;;;;54.00;17.15;;;4.00;100.00;;;;;;4969075;28;20046;-76
2023/04/08 02:40:50;;;;;;;61.20;19.17;;;4.00;100.00;;;;;;4983061;28;20038;-76
2023/04/08 02:43:17;;;;;;;56.97;17.83;;;3.90;100.00;;;;;;4969875;28;20057;-76
2023/04/08 02:45:44;;;;;;;58.78;19.00;;;3.90;100.00;;;;;;4976792;28;20054;-76
2023/04/08 02:48:11;;;;;;;63.78;18.17;;;3.90;100.00;;;;;;4965317;28;20082;-76
2023/04/08 02:50:39;;;;;;;62.35;17.88;;;3.90;100.00;;;;;;4969045;28;20090;-76
2023/04/08 02:53:07;;;;;;;59.55;17.67;;;3.90;100.00;;;;;;4958697;28;20043;-76
2023/04/08 02:55:34;;;;;;;55.15;17.80;;;3.90;100.00;;;;;;4984426;28;20051;-76
2023/04/08 02:58:01;;;;;;;53.90;16.73;;;3.90;100.00;;;;;;4968141;28;20054;-76
2023/04/08 03:00:28;;;;;;;69.93;17.42;;;4.00;100.00;;;;;;4967903;28;20061;-76
2023/04/08 03:02:55;;;;;;;63.40;17.90;;;3.90;100.00;;;;;;4970621;28;20051;-75
2023/04/08 03:05:22;;;;;;;50.80;16.30;;;3.90;100.00;;;;;;4970089;28;20130;-76
2023/04/08 03:07:49;;;;;;;56.13;18.85;;;3.90;100.00;;;;;;4967122;28;20046;-76
2023/04/08 03:10:16;;;;;;;67.32;18.02;;;3.90;100.00;;;;;;4950383;28;20117;-76
2023/04/08 03:12:43;;;;;;;66.75;19.90;;;3.90;100.00;;;;;;4964435;28;20069;-75
2023/04/08 03:15:09;;;;;;;64.20;19.70;;;3.90;100.00;;;;;;4952541;28;20044;-75
2023/04/08 03:17:36;;;;;;;62.13;18.48;;;3.90;100.00;;;;;;4968622;28;20491;-76
2023/04/08 03:20:03;;;;;;;58.35;17.08;;;3.90;100.00;;;;;;4955820;28;20062;-75
2023/04/08 03:22:31;;;;;;;57.65;18.50;;;3.90;100.00;;;;;;4967651;28;20098;-75
2023/04/08 03:24:57;;;;;;;73.78;20.30;;;3.90;100.00;;;;;;4965471;28;20769;-76
2023/04/08 03:27:25;;;;;;;61.47;18.25;;;3.90;100.00;;;;;;4952824;28;20050;-76
2023/04/08 03:29:52;;;;;;;61.75;19.40;;;3.90;100.00;;;;;;4967354;28;20047;-76
2023/04/08 03:32:19;;;;;;;63.67;17.25;;;3.90;100.00;;;;;;4952500;28;20049;-76
2023/04/08 03:34:45;;;;;;;59.30;16.80;;;3.90;100.00;;;;;;4966028;28;20094;-76
2023/04/08 03:37:12;;;;;;;48.50;14.70;;;3.80;100.00;;;;;;4973945;28;20046;-76
2023/04/08 03:39:39;;;;;;;54.88;15.57;;;3.80;100.00;;;;;;4969821;28;20078;-76
2023/04/08 03:42:06;;;;;;;56.15;15.07;;;3.80;100.00;;;;;;4960786;28;20106;-76
2023/04/08 03:44:32;;;;;;;47.33;15.48;;;3.80;100.00;;;;;;4970538;28;20078;-76
2023/04/08 03:46:59;;;;;;;52.45;16.15;;;3.80;100.00;;;;;;4966154;28;20046;-76
2023/04/08 03:49:26;;;;;;;62.05;15.10;;;3.80;100.00;;;;;;4965576;28;20051;-76
2023/04/08 03:51:53;;;;;;;49.50;15.77;;;3.80;100.00;;;;;;4968885;28;20046;-76
2023/04/08 03:54:20;;;;;;;51.05;16.60;;;3.80;100.00;;;;;;4960841;28;20042;-76
2023/04/08 03:56:48;;;;;;;58.38;16.85;;;3.80;100.00;;;;;;4976134;28;20723;-76
2023/04/08 03:59:15;;;;;;;46.38;15.07;;;3.80;100.00;;;;;;4971884;28;20042;-76
2023/04/08 04:01:41;;;;;;;43.50;15.30;;;3.70;100.00;;;;;;4974703;28;20047;-79
2023/04/08 04:04:08;;;;;;;52.55;14.85;;;3.70;100.00;;;;;;4970533;28;20051;-76
2023/04/08 04:06:36;;;;;;;51.28;15.80;;;3.70;100.00;;;;;;4971503;28;20415;-80
2023/04/08 04:09:03;;;;;;;48.13;15.82;;;3.70;100.00;;;;;;4973024;28;20053;-77
2023/04/08 04:11:30;;;;;;;48.90;15.43;;;3.70;100.00;;;;;;4954382;28;20039;-77
2023/04/08 04:13:57;;;;;;;41.35;14.05;;;3.70;100.00;;;;;;4956827;28;20050;-77
2023/04/08 04:16:23;;;;;;;56.38;15.77;;;3.70;100.00;;;;;;4976239;28;20069;-75
2023/04/08 04:18:52;;;;;;;49.50;15.75;;;3.70;100.00;;;;;;4959469;28;20592;-75
2023/04/08 04:21:19;;;;;;;49.03;15.45;;;3.70;100.00;;;;;;4961067;28;20164;-75
2023/04/08 04:23:46;;;;;;;50.72;16.20;;;3.70;100.00;;;;;;4954098;28;20051;-76
2023/04/08 04:26:14;;;;;;;55.15;16.38;;;3.70;100.00;;;;;;4958908;28;20042;-75
2023/04/08 04:28:40;;;;;;;45.05;14.15;;;3.70;100.00;;;;;;4970363;28;20144;-76
2023/04/08 04:31:07;;;;;;;46.40;14.38;;;3.70;100.00;;;;;;4985019;28;20050;-75
2023/04/08 04:33:34;;;;;;;45.03;13.25;;;3.70;100.00;;;;;;4952715;28;20471;-74
2023/04/08 04:36:01;;;;;;;46.88;14.85;;;3.70;100.00;;;;;;4969196;28;20057;-76
2023/04/08 04:38:28;;;;;;;50.25;14.75;;;3.60;100.00;;;;;;4950483;28;20050;-75
2023/04/08 04:40:56;;;;;;;54.88;14.13;;;3.70;100.00;;;;;;4961093;28;20565;-74
2023/04/08 04:43:23;;;;;;;48.13;15.02;;;3.60;100.00;;;;;;4968306;28;20058;-75
2023/04/08 04:45:50;;;;;;;49.03;14.75;;;3.60;100.00;;;;;;4977477;28;20050;-77
2023/04/08 04:48:17;;;;;;;60.15;15.80;;;3.70;100.00;;;;;;4970459;28;20058;-76
2023/04/08 04:50:44;;;;;;;47.22;15.77;;;3.70;100.00;;;;;;4969876;28;20135;-75
2023/04/08 04:53:11;;;;;;;50.33;15.65;;;3.70;100.00;;;;;;4975999;28;20055;-75
2023/04/08 04:55:38;;;;;;;55.40;16.05;;;3.70;100.00;;;;;;4958422;28;20057;-76
2023/04/08 04:58:05;;;;;;;61.58;17.40;;;3.70;100.00;;;;;;4971273;28;20396;-75
2023/04/08 05:00:32;;;;;;;52.35;17.73;;;3.80;100.00;;;;;;4971275;28;20392;-77
2023/04/08 05:02:59;;;;;;;70.00;16.98;;;3.80;100.00;;;;;;4970605;28;20126;-75
2023/04/08 05:05:26;;;;;;;47.00;15.52;;;3.80;100.00;;;;;;4969666;28;20051;-75
2023/04/08 05:07:53;;;;;;;52.72;14.35;;;3.80;100.00;;;;;;4958190;28;20039;-76
2023/04/08 05:10:20;;;;;;;59.20;15.60;;;3.70;100.00;;;;;;4958478;28;20051;-75
2023/04/08 05:12:46;;;;;;;43.00;14.38;;;3.70;100.00;;;;;;4971638;28;20042;-76
2023/04/08 05:15:13;;;;;;;46.03;14.80;;;3.70;100.00;;;;;;4971274;28;20066;-75
2023/04/08 05:17:40;;;;;;;57.15;14.93;;;3.70;100.00;;;;;;4980012;28;20169;-76
2023/04/08 05:20:07;;;;;;;49.05;14.80;;;3.70;100.00;;;;;;4976562;28;20435;-77
2023/04/08 05:22:34;;;;;;;62.42;16.08;;;3.70;100.00;;;;;;4974785;28;20077;-75
2023/04/08 05:25:01;;;;;;;46.45;14.93;;;3.70;100.00;;;;;;4966815;28;20066;-75
2023/04/08 05:27:28;;;;;;;57.22;14.60;;;3.70;100.00;;;;;;4967184;28;20054;-76
2023/04/08 05:29:55;;;;;;;48.70;15.00;;;3.80;100.00;;;;;;4963625;28;20043;-75
2023/04/08 05:32:22;;;;;;;66.72;15.00;;;3.70;100.00;;;;;;4952745;28;20043;-76
2023/04/08 05:34:48;;;;;;;48.17;15.30;;;3.80;100.00;;;;;;4966396;28;20046;-72
2023/04/08 05:37:15;;;;;;;52.85;15.63;;;3.80;100.00;;;;;;4968708;28;20058;-74
2023/04/08 05:39:42;;;;;;;56.90;15.02;;;3.80;100.00;;;;;;4954303;28;20057;-73
2023/04/08 05:42:09;;;;;;;58.47;15.98;;;3.80;100.00;;;;;;4973204;28;20051;-74
2023/04/08 05:44:37;;;;;;;45.28;14.07;;;3.80;100.00;;;;;;4981772;28;20042;-75
2023/04/08 05:47:04;;;;;;;52.10;15.98;;;3.80;100.00;;;;;;4969965;28;20059;-76
2023/04/08 05:49:32;;;;;;;51.35;15.45;;;3.80;100.00;;;;;;4971162;28;20051;-73
2023/04/08 05:51:58;;;;;;;42.97;14.38;;;3.80;100.00;;;;;;4973829;28;20789;-75
2023/04/08 05:54:25;;;;;;;47.72;14.77;;;3.80;100.00;;;;;;4955569;28;20133;-74
2023/04/08 05:56:52;;;;;;;49.75;14.15;;;3.80;100.00;;;;;;4966267;28;20141;-74
2023/04/08 05:59:19;;;;;;;37.90;13.75;;;3.80;100.00;;;;;;4952940;28;20050;-77
2023/04/08 06:01:46;;;;;;;54.35;16.25;;;3.90;100.00;;;;;;4969431;28;20443;-78
2023/04/08 06:04:12;;;;;;;53.33;16.77;;;3.80;100.00;;;;;;4968593;28;20070;-75
2023/04/08 06:06:40;;;;;;;56.15;17.88;;;3.90;100.00;;;;;;4968306;28;20102;-78
2023/04/08 06:09:07;;;;;;;58.63;17.80;;;3.90;100.00;;;;;;4968774;28;20100;-78
2023/04/08 06:11:34;;;;;;;50.05;16.85;;;3.90;100.00;;;;;;4975036;28;20058;-77
2023/04/08 06:14:01;;;;;;;51.70;15.02;;;3.90;100.00;;;;;;4946654;28;20046;-77
2023/04/08 06:16:28;;;;;;;45.25;17.10;;;4.00;100.00;;;;;;4968716;28;20051;-77
2023/04/08 06:18:55;;;;;;;44.42;14.32;;;4.00;100.00;;;;;;4955532;28;20168;-78
2023/04/08 06:21:22;;;;;;;56.83;16.95;;;4.00;100.00;;;;;;4964464;28;20058;-75
2023/04/08 06:23:49;;;;;;;55.20;16.10;;;4.00;100.00;;;;;;4966687;28;20046;-75
2023/04/08 06:26:15;;;;;;;51.67;15.60;;;4.10;100.00;;;;;;4963922;28;20046;-74
2023/04/08 06:28:42;;;;;;;51.90;16.65;;;4.10;100.00;;;;;;4988293;28;20050;-79
2023/04/08 06:31:09;;;;;;;48.67;14.88;;;4.10;100.00;;;;;;4976047;28;20046;-76
2023/04/08 06:33:36;;;;;;;44.65;14.50;;;4.20;100.00;;;;;;4964843;28;20043;-77
2023/04/08 06:36:07;;;;;;;58.72;16.75;;;4.20;100.00;;;;;;4966481;28;20056;-75
2023/04/08 06:38:34;;;;;;;46.92;16.38;;;4.20;100.00;;;;;;4953320;28;20171;-78
2023/04/08 06:41:05;;;;;;;52.25;16.27;;;4.20;100.00;;;;;;4980225;28;20059;-75
2023/04/08 06:43:33;;;;;;;57.63;18.20;;;4.20;100.00;;;;;;4963393;28;20130;-73
2023/04/08 06:46:00;;;;;;;46.30;15.63;;;4.20;100.00;;;;;;4954362;28;20098;-75
2023/04/08 06:48:29;;;;;;;51.67;15.80;;;4.10;100.00;;;;;;4967106;28;20825;-75
2023/04/08 06:50:57;;;;;;;53.15;16.23;;;4.10;100.00;;;;;;4966536;28;20047;-75
2023/04/08 06:53:25;;;;;;;53.80;15.43;;;4.10;100.00;;;;;;4966461;28;20089;-75
2023/04/08 06:55:52;;;;;;;62.00;17.50;;;4.10;100.00;;;;;;4967548;28;20491;-75
2023/04/08 06:58:19;;;;;;;43.08;16.05;;;4.20;100.00;;;;;;4964565;28;20121;-75
2023/04/08 07:00:46;;;;;;;49.10;15.32;;;4.10;100.00;;;;;;4968994;28;20097;-75
2023/04/08 07:03:13;;;;;;;47.80;16.17;;;4.20;100.00;;;;;;4963181;28;20070;-75
2023/04/08 07:05:41;;;;;;;61.90;17.30;;;4.10;100.00;;;;;;4967646;28;20138;-74
2023/04/08 07:08:08;;;;;;;55.13;16.33;;;4.20;100.00;;;;;;4953661;28;20121;-77
2023/04/08 07:10:35;;;;;;;53.50;16.75;;;4.20;100.00;;;;;;4980095;28;20409;-76
2023/04/08 07:13:02;;;;;;;54.85;16.83;;;4.20;100.00;;;;;;4974562;28;20126;-76
2023/04/08 07:15:29;;;;;;;61.10;16.35;;;4.20;100.00;;;;;;4974268;28;20054;-76
2023/04/08 07:17:57;;;;;;;55.85;15.45;;;4.10;100.00;;;;;;4967704;28;20400;-76
2023/04/08 07:20:25;;;;;;;53.15;15.43;;;4.10;100.00;;;;;;4969920;28;20502;-76
2023/04/08 07:22:51;;;;;;;54.63;14.95;;;4.10;100.00;;;;;;4972660;28;20085;-76
2023/04/08 07:25:18;;;;;;;72.07;15.52;;;4.20;100.00;;;;;;4959090;28;20047;-76
2023/04/08 07:27:45;;;;;;;45.13;13.90;;;4.20;100.00;;;;;;4979294;28;20089;-76
2023/04/08 07:30:12;;;;;;;34.03;12.68;;;4.10;100.00;;;;;;4965206;28;20051;-76
2023/04/08 07:32:39;;;;;;;44.00;13.35;;;4.20;100.00;;;;;;4978879;28;20511;-78
2023/04/08 07:35:06;;;;;;;40.00;13.07;;;4.30;100.00;;;;;;4969086;28;20482;-79
2023/04/08 07:37:33;;;;;;;43.78;13.35;;;4.40;100.00;;;;;;4967331;28;20059;-77
2023/04/08 07:40:00;;;;;;;38.92;13.95;;;4.40;100.00;;;;;;4972084;28;20058;-78
2023/04/08 07:42:27;;;;;;;41.03;13.90;;;4.50;100.00;;;;;;4969124;28;20050;-77
2023/04/08 07:44:54;;;;;;;45.80;14.35;;;4.50;100.00;;;;;;4960915;28;20815;-79
2023/04/08 07:47:21;;;;;;;42.35;13.10;;;4.50;100.00;;;;;;4976776;28;20054;-77
2023/04/08 07:49:48;;;;;;;51.15;15.45;;;4.50;100.00;;;;;;4954331;28;20090;-76
2023/04/08 07:52:15;;;;;;;43.70;15.52;;;4.50;100.00;;;;;;4969082;28;20058;-79
2023/04/08 07:54:42;;;;;;;49.58;15.23;;;4.50;100.00;;;;;;4968395;28;20554;-78
2023/04/08 07:57:09;;;;;;;39.47;14.55;;;4.50;100.00;;;;;;4986327;28;20161;-82
2023/04/08 07:59:36;;;;;;;56.17;15.93;;;4.50;100.00;;;;;;4973795;28;20063;-79
2023/04/08 08:02:03;;;;;;;49.22;16.70;;;4.60;100.00;;;;;;4957624;28;20083;-80
2023/04/08 08:04:30;;;;;;;53.15;15.00;;;4.50;100.00;;;;;;4957345;28;20113;-81
2023/04/08 08:06:57;;;;;;;56.45;16.20;;;4.60;100.00;;;;;;4972026;28;20043;-79
2023/04/08 08:09:24;;;;;;;64.28;15.93;;;4.60;100.00;;;;;;4955197;28;20047;-77
2023/04/08 08:11:51;;;;;;;48.13;14.95;;;4.60;100.00;;;;;;4962265;28;20475;-76
2023/04/08 08:14:18;;;;;;;58.88;15.75;;;4.60;100.00;;;;;;4957486;28;20053;-77
2023/04/08 08:16:48;;;;;;;58.45;15.75;;;4.60;100.00;;;;;;4955510;28;20047;-77
2023/04/08 08:19:15;;;;;;;56.35;15.40;;;4.70;100.00;;;;;;4972269;28;20166;-78
2023/04/08 08:21:45;;;;;;;51.50;14.98;;;4.90;100.00;;;;;;4984614;28;20047;-78
2023/04/08 08:24:12;;;;;;;53.40;15.63;;;4.90;100.00;;;;;;4956607;28;20047;-77
2023/04/08 08:26:39;;;;;;;49.03;14.55;;;4.80;100.00;;;;;;4956389;28;20179;-77
2023/04/08 08:29:07;;;;;;;49.25;15.60;;;4.90;100.00;;;;;;4954549;28;20513;-75
2023/04/08 08:31:34;;;;;;;58.70;16.35;;;4.90;100.00;;;;;;4955297;28;20047;-78
2023/04/08 08:34:01;;;;;;;52.58;15.90;;;4.90;100.00;;;;;;4969963;28;20116;-77
2023/04/08 08:36:28;;;;;;;48.42;18.17;;;4.90;100.00;;;;;;4955098;28;20061;-77
2023/04/08 08:38:55;;;;;;;53.28;16.65;;;5.00;100.00;;;;;;4953585;28;20059;-77
2023/04/08 08:41:22;;;;;;;58.42;17.55;;;5.00;100.00;;;;;;4985197;28;20085;-75
2023/04/08 08:43:49;;;;;;;49.22;15.57;;;5.10;100.00;;;;;;4969532;28;20051;-75
2023/04/08 08:46:18;;;;;;;53.72;16.58;;;5.10;100.00;;;;;;4950287;28;20047;-76
2023/04/08 08:48:45;;;;;;;56.08;16.73;;;5.20;100.00;;;;;;4965703;28;20117;-76
2023/04/08 08:51:12;;;;;;;56.75;16.98;;;5.20;100.00;;;;;;4956294;28;20590;-75
2023/04/08 08:53:44;;;;;;;52.28;16.83;;;5.30;100.00;;;;;;4954439;28;20042;-76
2023/04/08 08:56:11;;;;;;;59.55;16.58;;;5.30;100.00;;;;;;4966516;28;20050;-76
2023/04/08 08:58:43;;;;;;;49.90;17.52;;;5.30;100.00;;;;;;4978326;28;20068;-75
2023/04/08 09:01:31;;;;;;;56.80;17.70;;;5.40;100.00;;;;;;4980221;28;20045;-76
2023/04/08 09:04:25;;;;;;;47.45;16.48;;;5.40;100.00;;;;;;4953819;28;20074;-75
2023/04/08 09:07:10;;;;;;;59.75;17.58;;;5.40;100.00;;;;;;4948432;28;20739;-76
2023/04/08 09:09:50;;;;;;;52.85;15.65;;;5.40;100.00;;;;;;4966623;28;20074;-76
2023/04/08 09:12:17;;;;;;;55.65;17.02;;;5.40;100.00;;;;;;4950991;28;20043;-80
2023/04/08 09:14:45;;;;;;;59.92;16.33;;;5.40;100.00;;;;;;4952293;28;20403;-79
2023/04/08 09:17:12;;;;;;;54.72;16.00;;;5.40;100.00;;;;;;4952132;28;20058;-77
2023/04/08 09:19:39;;;;;;;52.53;17.42;;;5.50;100.00;;;;;;4986146;28;20054;-79
2023/04/08 09:22:10;;;;;;;50.42;16.10;;;5.50;100.00;;;;;;4953855;28;20058;-78
2023/04/08 09:24:37;;;;;;;55.65;17.92;;;5.50;100.00;;;;;;4953661;28;20900;-78
2023/04/08 09:27:04;;;;;;;62.45;18.45;;;5.50;100.00;;;;;;4968495;28;20432;-79
2023/04/08 09:29:33;;;;;;;49.70;15.75;;;5.50;100.00;;;;;;4951470;28;20051;-78
2023/04/08 09:32:03;;;;;;;53.65;16.23;;;5.60;100.00;;;;;;4951439;28;20049;-76
2023/04/08 09:34:31;;;;;;;53.85;17.15;;;5.50;100.00;;;;;;4964870;28;20046;-76
2023/04/08 09:36:58;;;;;;;58.47;16.88;;;5.50;100.00;;;;;;4965218;28;20493;-77
2023/04/08 09:39:25;;;;;;;54.17;15.27;;;5.60;99.90;;;;;;4963513;28;20065;-78
2023/04/08 09:41:54;;;;;;;47.55;15.98;;;5.60;100.00;;;;;;4949687;28;20058;-77
2023/04/08 09:44:25;;;;;;;47.35;15.20;;;5.50;100.00;;;;;;4948153;28;20373;-76
2023/04/08 09:47:07;;;;;;;54.80;16.95;;;5.60;99.90;;;;;;4965704;28;20047;-76
2023/04/08 09:49:43;;;;;;;50.65;16.33;;;5.60;100.00;;;;;;4947360;28;20053;-76
2023/04/08 09:52:19;;;;;;;50.53;16.88;;;5.60;100.00;;;;;;4965130;28;20047;-77
2023/04/08 09:54:58;;;;;;;47.47;16.08;;;5.70;100.00;;;;;;4951892;28;20768;-80
2023/04/08 09:57:45;;;;;;;47.50;16.40;;;5.80;99.70;;;;;;4966494;28;20924;-81
2023/04/08 10:00:14;;;;;;;50.72;16.30;;;5.80;99.40;;;;;;4949055;28;20051;-76
2023/04/08 10:03:06;;;;;;;56.65;17.02;;;5.90;99.10;;;;;;4965516;28;20046;-79
2023/04/08 10:05:37;;;;;;;44.63;16.38;;;5.80;98.80;;;;;;4979475;28;20057;-75
2023/04/08 10:08:06;;;;;;;57.05;16.48;;;5.80;99.30;;;;;;4963564;28;20043;-74
2023/04/08 10:10:38;;;;;;;44.60;15.50;;;5.90;99.40;;;;;;4965801;28;20051;-78
2023/04/08 10:13:08;;;;;;;49.53;16.15;;;5.80;99.20;;;;;;4952338;28;20046;-77
2023/04/08 10:15:37;;;;;;;57.63;16.75;;;5.80;98.90;;;;;;4964886;28;20105;-77
2023/04/08 10:18:07;;;;;;;53.10;17.23;;;5.80;99.40;;;;;;4967676;28;20135;-77
2023/04/08 10:20:37;;;;;;;50.88;16.70;;;5.90;99.50;;;;;;4951689;28;20047;-76
2023/04/08 10:23:12;;;;;;;53.22;16.80;;;6.00;98.90;;;;;;4967317;28;20057;-76
2023/04/08 10:25:47;;;;;;;48.40;16.45;;;6.00;98.50;;;;;;4967523;28;20062;-77
2023/04/08 10:28:15;;;;;;;49.78;18.42;;;6.10;99.00;;;;;;4949992;28;20066;-77
2023/04/08 10:30:45;;;;;;;56.38;16.48;;;6.00;98.60;;;;;;4952400;28;20767;-76
2023/04/08 10:33:19;;;;;;;48.42;17.05;;;6.20;98.70;;;;;;4970891;28;20478;-76
2023/04/08 10:35:48;;;;;;;46.03;16.30;;;6.30;98.50;;;;;;4949464;28;20085;-77
2023/04/08 10:38:16;;;;;;;52.97;15.88;;;6.30;97.90;;;;;;4949518;28;20121;-74
2023/04/08 10:40:43;;;;;;;49.40;15.75;;;6.40;98.30;;;;;;4951619;28;20058;-74
2023/04/08 10:43:12;;;;;;;41.40;13.90;;;6.70;98.50;;;;;;4966679;28;20050;-74
2023/04/08 10:45:39;;;;;;;40.25;15.73;;;7.00;97.10;;;;;;4949433;28;20063;-74
2023/04/08 10:48:13;;;;;;;33.70;13.35;;;7.10;95.40;;;;;;4964457;28;20782;-74
2023/04/08 10:50:40;;;;;;;39.47;14.07;;;7.20;93.90;;;;;;4966188;28;20773;-74
2023/04/08 10:53:07;;;;;;;36.47;12.55;;;7.10;93.50;;;;;;4948819;28;20137;-73
2023/04/08 10:55:34;;;;;;;41.25;13.75;;;7.00;93.40;;;;;;4949027;28;20050;-74
2023/04/08 10:58:08;;;;;;;32.42;12.80;;;7.00;93.70;;;;;;4965420;28;20058;-74
2023/04/08 11:00:37;;;;;;;40.42;14.63;;;6.90;93.70;;;;;;4966404;28;20054;-74
2023/04/08 11:03:06;;;;;;;33.50;12.80;;;6.80;94.40;;;;;;4948966;28;20090;-74
2023/04/08 11:05:38;;;;;;;44.03;13.98;;;6.80;93.80;;;;;;4966182;28;20061;-74
2023/04/08 11:08:05;;;;;;;45.30;15.35;;;6.80;94.10;;;;;;4965238;28;20046;-74
2023/04/08 11:10:40;;;;;;;45.40;15.98;;;6.70;94.20;;;;;;4965862;28;20043;-74
2023/04/08 11:13:08;;;;;;;45.10;15.13;;;6.70;95.40;;;;;;4965730;28;20739;-74
2023/04/08 11:15:37;;;;;;;42.72;14.27;;;6.80;95.60;;;;;;4966095;28;20137;-76
2023/04/08 11:18:05;;;;;;;54.78;18.52;;;6.90;95.40;;;;;;4948472;28;20602;-76
2023/04/08 11:20:35;;;;;;;48.97;16.98;;;6.80;94.90;;;;;;4953946;28;20050;-76
2023/04/08 11:23:02;;;;;;;54.85;19.13;;;6.80;94.90;;;;;;4952505;28;20125;-76
2023/04/08 11:25:29;;;;;;;49.58;18.25;;;6.80;94.80;;;;;;4965797;28;20055;-76
2023/04/08 11:27:56;;;;;;;50.78;17.42;;;6.70;95.10;;;;;;4948421;28;20047;-76
2023/04/08 11:30:23;;;;;;;59.30;19.73;;;6.80;95.30;;;;;;4964114;28;20503;-76
2023/04/08 11:32:51;;;;;;;61.53;20.65;;;6.70;95.30;;;;;;4980539;28;20755;-76
2023/04/08 11:35:19;;;;;;;55.38;17.73;;;6.60;95.70;;;;;;4966233;28;20059;-76
2023/04/08 11:37:46;;;;;;;44.65;15.75;;;6.70;95.80;;;;;;4966017;28;20054;-76
2023/04/08 11:40:19;;;;;;;50.28;18.60;;;6.70;95.70;;;;;;4964749;28;20054;-76
2023/04/08 11:42:46;;;;;;;54.08;17.10;;;6.60;95.80;;;;;;4964305;28;20046;-76
2023/04/08 11:45:15;;;;;;;52.67;18.92;;;6.70;96.40;;;;;;4946595;28;20141;-74
2023/04/08 11:47:43;;;;;;;55.05;18.00;;;6.80;96.20;;;;;;4947983;28;20050;-74
2023/04/08 11:50:10;;;;;;;61.30;19.90;;;6.80;96.10;;;;;;4964890;28;20049;-74
2023/04/08 11:52:47;;;;;;;56.67;20.15;;;6.90;95.30;;;;;;4980178;28;20747;-77
2023/04/08 11:55:41;;;;;;;55.75;19.70;;;7.00;95.40;;;;;;4948268;28;20054;-75
2023/04/08 11:58:07;;;;;;;59.03;18.63;;;7.00;94.60;;;;;;4937603;28;20527;-76
2023/04/08 12:00:36;;;;;;;49.35;18.02;;;7.00;95.10;;;;;;4948370;28;20097;-76
2023/04/08 12:03:03;;;;;;;50.92;18.00;;;7.00;94.20;;;;;;4948118;28;20415;-75
2023/04/08 12:05:30;;;;;;;50.42;17.15;;;7.10;95.00;;;;;;4964909;28;20145;-76
2023/04/08 12:07:56;;;;;;;45.65;17.15;;;7.00;94.80;;;;;;4947901;28;20050;-75
2023/04/08 12:10:26;;;;;;;57.50;18.75;;;7.10;94.60;;;;;;4980106;28;20061;-76
2023/04/08 12:12:53;;;;;;;64.38;19.35;;;7.20;95.20;;;;;;4968032;28;20057;-76
2023/04/08 12:15:20;;;;;;;50.58;18.65;;;7.20;95.00;;;;;;4968229;28;20054;-76
2023/04/08 12:17:46;;;;;;;49.90;18.27;;;7.30;94.10;;;;;;4966753;28;20066;-76
2023/04/08 12:20:15;;;;;;;44.03;16.88;;;7.40;93.60;;;;;;4984036;28;20058;-76
2023/04/08 12:22:42;;;;;;;44.50;17.67;;;7.50;93.70;;;;;;4953901;28;20058;-76
2023/04/08 12:25:09;;;;;;;45.70;18.17;;;7.50;93.90;;;;;;4967994;28;20055;-76
2023/04/08 12:27:36;;;;;;;47.55;16.95;;;7.60;93.90;;;;;;4967040;28;20125;-76
2023/04/08 12:30:03;;;;;;;42.72;17.38;;;7.80;93.40;;;;;;4968820;28;20059;-76
2023/04/08 12:32:30;;;;;;;50.78;16.17;;;7.80;92.00;;;;;;4953781;28;20053;-76
2023/04/08 12:34:57;;;;;;;57.67;16.90;;;7.80;91.30;;;;;;4951263;28;20066;-76